sensor_id;sensor_type;location;lat;lon;timestamp;P1;durP1;ratioP1;P2;durP2;ratioP2
52266;SDS011;38223;50.940;4.034;2022-11-20T00:00:45;69.85;;;37.53;;
52266;SDS011;38223;50.940;4.034;2022-11-20T00:03:15;62.88;;;36.15;;
52266;SDS011;38223;50.940;4.034;2022-11-20T00:05:47;66.02;;;33.75;;
52266;SDS011;38223;50.940;4.034;2022-11-20T00:08:18;55.52;;;34.18;;
52266;SDS011;38223;50.940;4.034;2022-11-20T00:10:53;62.35;;;35.48;;
52266;SDS011;38223;50.940;4.034;2022-11-20T00:13:22;63.52;;;33.92;;
52266;SDS011;38223;50.940;4.034;2022-11-20T00:15:59;65.40;;;33.30;;
52266;SDS011;38223;50.940;4.034;2022-11-20T00:18:30;57.43;;;33.45;;
52266;SDS011;38223;50.940;4.034;2022-11-20T00:21:12;64.30;;;33.98;;
52266;SDS011;38223;50.940;4.034;2022-11-20T00:23:55;59.77;;;33.83;;
52266;SDS011;38223;50.940;4.034;2022-11-20T00:26:26;51.88;;;33.08;;
52266;SDS011;38223;50.940;4.034;2022-11-20T00:28:59;60.63;;;32.70;;
52266;SDS011;38223;50.940;4.034;2022-11-20T00:31:34;57.38;;;32.83;;
52266;SDS011;38223;50.940;4.034;2022-11-20T00:34:09;58.80;;;32.03;;
52266;SDS011;38223;50.940;4.034;2022-11-20T00:36:38;56.37;;;33.95;;
52266;SDS011;38223;50.940;4.034;2022-11-20T00:39:08;58.13;;;33.23;;
52266;SDS011;38223;50.940;4.034;2022-11-20T00:41:39;53.25;;;32.20;;
52266;SDS011;38223;50.940;4.034;2022-11-20T00:44:12;57.88;;;33.05;;
52266;SDS011;38223;50.940;4.034;2022-11-20T00:46:47;54.15;;;32.42;;
52266;SDS011;38223;50.940;4.034;2022-11-20T00:49:17;57.03;;;34.03;;
52266;SDS011;38223;50.940;4.034;2022-11-20T00:51:51;56.18;;;34.03;;
52266;SDS011;38223;50.940;4.034;2022-11-20T00:54:22;58.68;;;32.80;;
52266;SDS011;38223;50.940;4.034;2022-11-20T00:56:54;57.90;;;32.78;;
52266;SDS011;38223;50.940;4.034;2022-11-20T00:59:30;59.45;;;33.45;;
52266;SDS011;38223;50.940;4.034;2022-11-20T01:02:00;59.33;;;34.48;;
52266;SDS011;38223;50.940;4.034;2022-11-20T01:04:31;59.23;;;34.15;;
52266;SDS011;38223;50.940;4.034;2022-11-20T01:07:02;57.30;;;33.63;;
52266;SDS011;38223;50.940;4.034;2022-11-20T01:09:37;50.63;;;32.93;;
52266;SDS011;38223;50.940;4.034;2022-11-20T01:12:06;57.90;;;35.23;;
52266;SDS011;38223;50.940;4.034;2022-11-20T01:14:37;60.28;;;34.18;;
52266;SDS011;38223;50.940;4.034;2022-11-20T01:17:08;59.13;;;34.83;;
52266;SDS011;38223;50.940;4.034;2022-11-20T01:19:41;62.00;;;33.73;;
52266;SDS011;38223;50.940;4.034;2022-11-20T01:22:15;58.70;;;34.43;;
52266;SDS011;38223;50.940;4.034;2022-11-20T01:25:05;60.57;;;33.73;;
52266;SDS011;38223;50.940;4.034;2022-11-20T01:27:37;58.40;;;34.00;;
52266;SDS011;38223;50.940;4.034;2022-11-20T01:30:10;61.90;;;34.25;;
52266;SDS011;38223;50.940;4.034;2022-11-20T01:32:43;57.80;;;34.92;;
52266;SDS011;38223;50.940;4.034;2022-11-20T01:35:17;57.78;;;34.20;;
52266;SDS011;38223;50.940;4.034;2022-11-20T01:37:49;60.80;;;36.00;;
52266;SDS011;38223;50.940;4.034;2022-11-20T01:40:21;57.10;;;35.25;;
52266;SDS011;38223;50.940;4.034;2022-11-20T01:42:54;57.03;;;33.88;;
52266;SDS011;38223;50.940;4.034;2022-11-20T01:48:38;60.20;;;35.15;;
52266;SDS011;38223;50.940;4.034;2022-11-20T01:51:16;58.60;;;36.03;;
52266;SDS011;38223;50.940;4.034;2022-11-20T01:53:45;62.67;;;37.38;;
52266;SDS011;38223;50.940;4.034;2022-11-20T01:56:18;62.15;;;36.40;;
52266;SDS011;38223;50.940;4.034;2022-11-20T01:58:52;56.68;;;36.45;;
52266;SDS011;38223;50.940;4.034;2022-11-20T02:01:25;69.12;;;36.28;;
52266;SDS011;38223;50.940;4.034;2022-11-20T02:03:52;62.93;;;37.25;;
52266;SDS011;38223;50.940;4.034;2022-11-20T02:08:58;58.55;;;35.28;;
52266;SDS011;38223;50.940;4.034;2022-11-20T02:11:30;60.90;;;37.28;;
52266;SDS011;38223;50.940;4.034;2022-11-20T02:14:06;67.45;;;35.98;;
52266;SDS011;38223;50.940;4.034;2022-11-20T02:16:39;66.10;;;36.42;;
52266;SDS011;38223;50.940;4.034;2022-11-20T02:19:22;67.30;;;37.15;;
52266;SDS011;38223;50.940;4.034;2022-11-20T02:24:34;70.70;;;37.33;;
52266;SDS011;38223;50.940;4.034;2022-11-20T02:27:09;73.40;;;38.23;;
52266;SDS011;38223;50.940;4.034;2022-11-20T02:29:49;66.92;;;37.75;;
52266;SDS011;38223;50.940;4.034;2022-11-20T02:32:20;71.35;;;36.63;;
52266;SDS011;38223;50.940;4.034;2022-11-20T02:35:05;64.05;;;35.28;;
52266;SDS011;38223;50.940;4.034;2022-11-20T02:37:30;64.87;;;34.33;;
52266;SDS011;38223;50.940;4.034;2022-11-20T02:40:05;65.90;;;34.08;;
52266;SDS011;38223;50.940;4.034;2022-11-20T02:42:38;70.08;;;36.00;;
52266;SDS011;38223;50.940;4.034;2022-11-20T02:45:06;66.55;;;36.77;;
52266;SDS011;38223;50.940;4.034;2022-11-20T02:47:40;62.65;;;34.13;;
52266;SDS011;38223;50.940;4.034;2022-11-20T02:50:11;61.73;;;34.00;;
52266;SDS011;38223;50.940;4.034;2022-11-20T02:52:51;68.92;;;35.75;;
52266;SDS011;38223;50.940;4.034;2022-11-20T02:55:21;69.85;;;38.35;;
52266;SDS011;38223;50.940;4.034;2022-11-20T02:57:55;64.97;;;35.17;;
52266;SDS011;38223;50.940;4.034;2022-11-20T03:00:23;62.53;;;34.38;;
52266;SDS011;38223;50.940;4.034;2022-11-20T03:02:52;61.70;;;34.73;;
52266;SDS011;38223;50.940;4.034;2022-11-20T03:05:26;62.20;;;34.65;;
52266;SDS011;38223;50.940;4.034;2022-11-20T03:07:56;57.30;;;33.38;;
52266;SDS011;38223;50.940;4.034;2022-11-20T03:10:33;61.37;;;34.78;;
52266;SDS011;38223;50.940;4.034;2022-11-20T03:13:02;65.40;;;34.48;;
52266;SDS011;38223;50.940;4.034;2022-11-20T03:15:33;69.95;;;35.50;;
52266;SDS011;38223;50.940;4.034;2022-11-20T03:18:11;61.73;;;33.60;;
52266;SDS011;38223;50.940;4.034;2022-11-20T03:20:41;63.75;;;33.53;;
52266;SDS011;38223;50.940;4.034;2022-11-20T03:23:32;62.67;;;34.50;;
52266;SDS011;38223;50.940;4.034;2022-11-20T03:26:09;61.85;;;33.67;;
52266;SDS011;38223;50.940;4.034;2022-11-20T03:28:46;68.52;;;35.10;;
52266;SDS011;38223;50.940;4.034;2022-11-20T03:31:21;68.17;;;35.28;;
52266;SDS011;38223;50.940;4.034;2022-11-20T03:33:53;66.55;;;34.90;;
52266;SDS011;38223;50.940;4.034;2022-11-20T03:36:29;60.20;;;35.10;;
52266;SDS011;38223;50.940;4.034;2022-11-20T03:39:01;66.28;;;36.08;;
52266;SDS011;38223;50.940;4.034;2022-11-20T03:41:40;69.70;;;36.40;;
52266;SDS011;38223;50.940;4.034;2022-11-20T03:44:09;63.52;;;35.50;;
52266;SDS011;38223;50.940;4.034;2022-11-20T03:46:48;69.15;;;37.17;;
52266;SDS011;38223;50.940;4.034;2022-11-20T03:49:18;68.37;;;37.78;;
52266;SDS011;38223;50.940;4.034;2022-11-20T03:51:59;62.27;;;36.33;;
52266;SDS011;38223;50.940;4.034;2022-11-20T03:54:29;65.12;;;36.75;;
52266;SDS011;38223;50.940;4.034;2022-11-20T03:56:59;74.20;;;36.98;;
52266;SDS011;38223;50.940;4.034;2022-11-20T03:59:31;67.67;;;37.42;;
52266;SDS011;38223;50.940;4.034;2022-11-20T04:02:01;68.20;;;36.45;;
52266;SDS011;38223;50.940;4.034;2022-11-20T04:04:32;69.10;;;36.30;;
52266;SDS011;38223;50.940;4.034;2022-11-20T04:07:03;73.12;;;36.38;;
52266;SDS011;38223;50.940;4.034;2022-11-20T04:09:30;67.70;;;36.45;;
52266;SDS011;38223;50.940;4.034;2022-11-20T04:11:58;68.60;;;36.40;;
52266;SDS011;38223;50.940;4.034;2022-11-20T04:14:31;70.37;;;37.85;;
52266;SDS011;38223;50.940;4.034;2022-11-20T04:17:06;64.90;;;35.90;;
52266;SDS011;38223;50.940;4.034;2022-11-20T04:19:37;73.40;;;37.80;;
52266;SDS011;38223;50.940;4.034;2022-11-20T04:22:07;68.37;;;36.20;;
52266;SDS011;38223;50.940;4.034;2022-11-20T04:27:12;75.57;;;37.78;;
52266;SDS011;38223;50.940;4.034;2022-11-20T04:29:45;76.57;;;38.05;;
52266;SDS011;38223;50.940;4.034;2022-11-20T04:32:15;71.67;;;36.25;;
52266;SDS011;38223;50.940;4.034;2022-11-20T04:34:50;75.20;;;38.00;;
52266;SDS011;38223;50.940;4.034;2022-11-20T04:37:23;92.40;;;44.85;;
52266;SDS011;38223;50.940;4.034;2022-11-20T04:39:56;83.67;;;38.58;;
52266;SDS011;38223;50.940;4.034;2022-11-20T04:42:28;68.50;;;36.68;;
52266;SDS011;38223;50.940;4.034;2022-11-20T04:45:00;79.05;;;37.80;;
52266;SDS011;38223;50.940;4.034;2022-11-20T04:47:33;75.67;;;37.63;;
52266;SDS011;38223;50.940;4.034;2022-11-20T04:50:04;66.10;;;36.53;;
52266;SDS011;38223;50.940;4.034;2022-11-20T04:52:37;79.05;;;36.48;;
52266;SDS011;38223;50.940;4.034;2022-11-20T04:55:10;72.08;;;36.38;;
52266;SDS011;38223;50.940;4.034;2022-11-20T04:57:42;80.28;;;38.30;;
52266;SDS011;38223;50.940;4.034;2022-11-20T05:00:13;70.57;;;36.08;;
52266;SDS011;38223;50.940;4.034;2022-11-20T05:02:48;75.50;;;37.40;;
52266;SDS011;38223;50.940;4.034;2022-11-20T05:05:17;77.27;;;37.90;;
52266;SDS011;38223;50.940;4.034;2022-11-20T05:07:48;70.47;;;36.98;;
52266;SDS011;38223;50.940;4.034;2022-11-20T05:10:19;75.28;;;37.28;;
52266;SDS011;38223;50.940;4.034;2022-11-20T05:12:51;75.32;;;37.25;;
52266;SDS011;38223;50.940;4.034;2022-11-20T05:15:21;69.97;;;36.63;;
52266;SDS011;38223;50.940;4.034;2022-11-20T05:17:55;73.00;;;35.88;;
52266;SDS011;38223;50.940;4.034;2022-11-20T05:20:29;72.58;;;35.68;;
52266;SDS011;38223;50.940;4.034;2022-11-20T05:22:57;70.92;;;36.48;;
52266;SDS011;38223;50.940;4.034;2022-11-20T05:25:28;78.55;;;37.55;;
52266;SDS011;38223;50.940;4.034;2022-11-20T05:28:00;78.28;;;37.28;;
52266;SDS011;38223;50.940;4.034;2022-11-20T05:30:28;79.50;;;39.27;;
52266;SDS011;38223;50.940;4.034;2022-11-20T05:32:58;78.10;;;39.85;;
52266;SDS011;38223;50.940;4.034;2022-11-20T05:35:30;81.35;;;38.55;;
52266;SDS011;38223;50.940;4.034;2022-11-20T05:38:02;86.25;;;39.58;;
52266;SDS011;38223;50.940;4.034;2022-11-20T05:40:37;85.17;;;40.17;;
52266;SDS011;38223;50.940;4.034;2022-11-20T05:43:07;83.27;;;39.95;;
52266;SDS011;38223;50.940;4.034;2022-11-20T05:45:40;89.25;;;39.85;;
52266;SDS011;38223;50.940;4.034;2022-11-20T05:48:11;91.80;;;39.83;;
52266;SDS011;38223;50.940;4.034;2022-11-20T05:50:45;93.40;;;39.13;;
52266;SDS011;38223;50.940;4.034;2022-11-20T05:53:14;92.85;;;39.30;;
52266;SDS011;38223;50.940;4.034;2022-11-20T05:55:55;94.07;;;39.98;;
52266;SDS011;38223;50.940;4.034;2022-11-20T05:58:17;102.02;;;40.28;;
52266;SDS011;38223;50.940;4.034;2022-11-20T06:03:15;94.95;;;40.92;;
52266;SDS011;38223;50.940;4.034;2022-11-20T06:05:42;99.85;;;40.40;;
52266;SDS011;38223;50.940;4.034;2022-11-20T06:08:14;96.40;;;39.73;;
52266;SDS011;38223;50.940;4.034;2022-11-20T06:10:49;94.58;;;40.25;;
52266;SDS011;38223;50.940;4.034;2022-11-20T06:13:20;90.42;;;40.10;;
52266;SDS011;38223;50.940;4.034;2022-11-20T06:15:58;93.55;;;38.25;;
52266;SDS011;38223;50.940;4.034;2022-11-20T06:18:27;94.13;;;39.98;;
52266;SDS011;38223;50.940;4.034;2022-11-20T06:21:02;98.25;;;40.55;;
52266;SDS011;38223;50.940;4.034;2022-11-20T06:23:35;100.62;;;40.90;;
52266;SDS011;38223;50.940;4.034;2022-11-20T06:26:15;99.85;;;41.13;;
52266;SDS011;38223;50.940;4.034;2022-11-20T06:28:49;100.62;;;40.55;;
52266;SDS011;38223;50.940;4.034;2022-11-20T06:31:23;101.15;;;41.35;;
52266;SDS011;38223;50.940;4.034;2022-11-20T06:33:57;97.00;;;40.03;;
52266;SDS011;38223;50.940;4.034;2022-11-20T06:36:29;97.82;;;41.15;;
52266;SDS011;38223;50.940;4.034;2022-11-20T06:39:00;100.75;;;40.23;;
52266;SDS011;38223;50.940;4.034;2022-11-20T06:41:34;101.87;;;39.92;;
52266;SDS011;38223;50.940;4.034;2022-11-20T06:44:04;99.83;;;40.85;;
52266;SDS011;38223;50.940;4.034;2022-11-20T06:46:40;88.75;;;38.10;;
52266;SDS011;38223;50.940;4.034;2022-11-20T06:49:10;96.35;;;40.38;;
52266;SDS011;38223;50.940;4.034;2022-11-20T06:51:42;92.05;;;40.30;;
52266;SDS011;38223;50.940;4.034;2022-11-20T06:54:13;95.30;;;39.98;;
52266;SDS011;38223;50.940;4.034;2022-11-20T06:57:18;95.57;;;40.33;;
52266;SDS011;38223;50.940;4.034;2022-11-20T06:59:52;83.87;;;38.85;;
52266;SDS011;38223;50.940;4.034;2022-11-20T07:02:22;87.62;;;38.67;;
52266;SDS011;38223;50.940;4.034;2022-11-20T07:04:54;86.47;;;38.80;;
52266;SDS011;38223;50.940;4.034;2022-11-20T07:07:25;91.47;;;39.33;;
52266;SDS011;38223;50.940;4.034;2022-11-20T07:09:55;84.60;;;37.60;;
52266;SDS011;38223;50.940;4.034;2022-11-20T07:12:32;89.25;;;37.88;;
52266;SDS011;38223;50.940;4.034;2022-11-20T07:15:01;85.92;;;39.05;;
52266;SDS011;38223;50.940;4.034;2022-11-20T07:17:33;85.12;;;36.83;;
52266;SDS011;38223;50.940;4.034;2022-11-20T07:20:04;86.53;;;38.05;;
52266;SDS011;38223;50.940;4.034;2022-11-20T07:22:36;91.55;;;38.67;;
52266;SDS011;38223;50.940;4.034;2022-11-20T07:25:07;83.27;;;36.85;;
52266;SDS011;38223;50.940;4.034;2022-11-20T07:27:39;86.72;;;37.33;;
52266;SDS011;38223;50.940;4.034;2022-11-20T07:30:15;83.85;;;38.25;;
52266;SDS011;38223;50.940;4.034;2022-11-20T07:32:47;83.65;;;37.63;;
52266;SDS011;38223;50.940;4.034;2022-11-20T07:35:16;85.53;;;37.03;;
52266;SDS011;38223;50.940;4.034;2022-11-20T07:37:46;76.47;;;35.60;;
52266;SDS011;38223;50.940;4.034;2022-11-20T07:40:22;88.45;;;38.65;;
52266;SDS011;38223;50.940;4.034;2022-11-20T07:42:56;80.38;;;37.58;;
52266;SDS011;38223;50.940;4.034;2022-11-20T07:45:28;84.40;;;37.15;;
52266;SDS011;38223;50.940;4.034;2022-11-20T07:48:00;76.87;;;35.63;;
52266;SDS011;38223;50.940;4.034;2022-11-20T07:50:34;78.55;;;36.30;;
52266;SDS011;38223;50.940;4.034;2022-11-20T07:53:04;78.47;;;35.55;;
52266;SDS011;38223;50.940;4.034;2022-11-20T07:55:37;81.10;;;35.40;;
52266;SDS011;38223;50.940;4.034;2022-11-20T07:58:08;77.45;;;35.65;;
52266;SDS011;38223;50.940;4.034;2022-11-20T08:00:41;83.15;;;35.10;;
52266;SDS011;38223;50.940;4.034;2022-11-20T08:03:36;78.02;;;35.75;;
52266;SDS011;38223;50.940;4.034;2022-11-20T08:06:13;79.92;;;35.52;;
52266;SDS011;38223;50.940;4.034;2022-11-20T08:08:43;83.30;;;35.70;;
52266;SDS011;38223;50.940;4.034;2022-11-20T08:11:16;81.55;;;34.83;;
52266;SDS011;38223;50.940;4.034;2022-11-20T08:14:04;77.82;;;34.65;;
52266;SDS011;38223;50.940;4.034;2022-11-20T08:16:48;86.53;;;35.17;;
52266;SDS011;38223;50.940;4.034;2022-11-20T08:19:19;82.57;;;34.03;;
52266;SDS011;38223;50.940;4.034;2022-11-20T08:21:52;79.17;;;33.92;;
52266;SDS011;38223;50.940;4.034;2022-11-20T08:24:26;83.75;;;36.15;;
52266;SDS011;38223;50.940;4.034;2022-11-20T08:27:01;73.45;;;33.42;;
52266;SDS011;38223;50.940;4.034;2022-11-20T08:30:04;81.37;;;34.05;;
52266;SDS011;38223;50.940;4.034;2022-11-20T08:32:39;84.03;;;35.00;;
52266;SDS011;38223;50.940;4.034;2022-11-20T08:35:12;83.00;;;34.50;;
52266;SDS011;38223;50.940;4.034;2022-11-20T08:37:47;79.67;;;33.83;;
52266;SDS011;38223;50.940;4.034;2022-11-20T08:40:20;83.25;;;33.50;;
52266;SDS011;38223;50.940;4.034;2022-11-20T08:42:54;75.95;;;32.53;;
52266;SDS011;38223;50.940;4.034;2022-11-20T08:45:43;84.05;;;33.50;;
52266;SDS011;38223;50.940;4.034;2022-11-20T08:48:14;83.65;;;34.00;;
52266;SDS011;38223;50.940;4.034;2022-11-20T08:50:44;83.52;;;34.18;;
52266;SDS011;38223;50.940;4.034;2022-11-20T08:53:15;83.53;;;34.63;;
52266;SDS011;38223;50.940;4.034;2022-11-20T08:55:47;74.00;;;31.45;;
52266;SDS011;38223;50.940;4.034;2022-11-20T08:58:20;78.20;;;32.20;;
52266;SDS011;38223;50.940;4.034;2022-11-20T09:00:52;80.03;;;32.10;;
52266;SDS011;38223;50.940;4.034;2022-11-20T09:03:24;80.28;;;33.75;;
52266;SDS011;38223;50.940;4.034;2022-11-20T09:05:58;75.50;;;32.28;;
52266;SDS011;38223;50.940;4.034;2022-11-20T09:08:36;77.72;;;31.85;;
52266;SDS011;38223;50.940;4.034;2022-11-20T09:11:05;73.80;;;31.33;;
52266;SDS011;38223;50.940;4.034;2022-11-20T09:13:37;73.47;;;32.08;;
52266;SDS011;38223;50.940;4.034;2022-11-20T09:16:11;74.30;;;31.45;;
52266;SDS011;38223;50.940;4.034;2022-11-20T09:18:39;68.62;;;30.70;;
52266;SDS011;38223;50.940;4.034;2022-11-20T09:21:13;74.13;;;31.77;;
52266;SDS011;38223;50.940;4.034;2022-11-20T09:23:43;64.17;;;29.02;;
52266;SDS011;38223;50.940;4.034;2022-11-20T09:26:18;60.67;;;29.52;;
52266;SDS011;38223;50.940;4.034;2022-11-20T09:28:49;58.55;;;28.00;;
52266;SDS011;38223;50.940;4.034;2022-11-20T09:31:25;57.05;;;27.77;;
52266;SDS011;38223;50.940;4.034;2022-11-20T09:33:56;51.60;;;26.17;;
52266;SDS011;38223;50.940;4.034;2022-11-20T09:36:26;58.95;;;28.02;;
52266;SDS011;38223;50.940;4.034;2022-11-20T09:38:57;56.53;;;26.68;;
52266;SDS011;38223;50.940;4.034;2022-11-20T09:44:30;50.85;;;26.02;;
52266;SDS011;38223;50.940;4.034;2022-11-20T09:47:03;48.63;;;24.52;;
52266;SDS011;38223;50.940;4.034;2022-11-20T09:55:46;44.30;;;22.07;;
52266;SDS011;38223;50.940;4.034;2022-11-20T09:58:31;42.10;;;22.42;;
52266;SDS011;38223;50.940;4.034;2022-11-20T10:01:15;36.98;;;21.48;;
52266;SDS011;38223;50.940;4.034;2022-11-20T10:04:04;36.17;;;21.05;;
52266;SDS011;38223;50.940;4.034;2022-11-20T10:06:44;37.85;;;21.25;;
52266;SDS011;38223;50.940;4.034;2022-11-20T10:17:35;30.75;;;17.92;;
52266;SDS011;38223;50.940;4.034;2022-11-20T10:20:22;29.45;;;17.05;;
52266;SDS011;38223;50.940;4.034;2022-11-20T10:28:43;20.08;;;12.60;;
52266;SDS011;38223;50.940;4.034;2022-11-20T10:31:30;18.67;;;12.07;;
52266;SDS011;38223;50.940;4.034;2022-11-20T10:37:34;15.25;;;10.65;;
52266;SDS011;38223;50.940;4.034;2022-11-20T10:42:02;17.15;;;9.63;;
52266;SDS011;38223;50.940;4.034;2022-11-20T10:44:35;13.70;;;8.90;;
52266;SDS011;38223;50.940;4.034;2022-11-20T10:47:27;15.15;;;7.95;;
52266;SDS011;38223;50.940;4.034;2022-11-20T10:50:04;9.03;;;8.15;;
52266;SDS011;38223;50.940;4.034;2022-11-20T10:55:43;10.78;;;5.92;;
52266;SDS011;38223;50.940;4.034;2022-11-20T11:00:50;9.20;;;5.37;;
52266;SDS011;38223;50.940;4.034;2022-11-20T11:03:28;10.85;;;6.12;;
52266;SDS011;38223;50.940;4.034;2022-11-20T11:06:02;8.38;;;5.08;;
52266;SDS011;38223;50.940;4.034;2022-11-20T11:08:43;8.73;;;5.28;;
52266;SDS011;38223;50.940;4.034;2022-11-20T11:11:24;7.42;;;4.92;;
52266;SDS011;38223;50.940;4.034;2022-11-20T11:14:10;7.10;;;4.80;;
52266;SDS011;38223;50.940;4.034;2022-11-20T11:16:52;6.30;;;4.28;;
52266;SDS011;38223;50.940;4.034;2022-11-20T11:19:22;8.18;;;3.83;;
52266;SDS011;38223;50.940;4.034;2022-11-20T11:21:59;6.95;;;4.30;;
52266;SDS011;38223;50.940;4.034;2022-11-20T11:24:29;6.47;;;3.92;;
52266;SDS011;38223;50.940;4.034;2022-11-20T11:27:04;4.97;;;3.30;;
52266;SDS011;38223;50.940;4.034;2022-11-20T11:29:35;8.70;;;3.37;;
52266;SDS011;38223;50.940;4.034;2022-11-20T11:32:06;6.45;;;3.52;;
52266;SDS011;38223;50.940;4.034;2022-11-20T11:34:43;10.80;;;3.50;;
52266;SDS011;38223;50.940;4.034;2022-11-20T11:37:18;6.08;;;3.12;;
52266;SDS011;38223;50.940;4.034;2022-11-20T11:39:53;6.12;;;2.98;;
52266;SDS011;38223;50.940;4.034;2022-11-20T11:42:23;4.50;;;2.52;;
52266;SDS011;38223;50.940;4.034;2022-11-20T11:44:56;6.42;;;2.70;;
52266;SDS011;38223;50.940;4.034;2022-11-20T11:50:20;4.80;;;2.75;;
52266;SDS011;38223;50.940;4.034;2022-11-20T11:53:09;4.53;;;2.47;;
52266;SDS011;38223;50.940;4.034;2022-11-20T11:55:56;7.47;;;3.25;;
52266;SDS011;38223;50.940;4.034;2022-11-20T12:07:08;7.72;;;3.40;;
52266;SDS011;38223;50.940;4.034;2022-11-20T12:09:41;10.38;;;3.70;;
52266;SDS011;38223;50.940;4.034;2022-11-20T12:12:17;4.92;;;3.20;;
52266;SDS011;38223;50.940;4.034;2022-11-20T12:14:48;4.95;;;2.80;;
52266;SDS011;38223;50.940;4.034;2022-11-20T12:17:24;6.20;;;3.45;;
52266;SDS011;38223;50.940;4.034;2022-11-20T12:19:57;5.87;;;3.70;;
52266;SDS011;38223;50.940;4.034;2022-11-20T12:22:48;7.97;;;3.67;;
52266;SDS011;38223;50.940;4.034;2022-11-20T12:25:26;6.47;;;3.50;;
52266;SDS011;38223;50.940;4.034;2022-11-20T12:28:13;8.28;;;3.70;;
52266;SDS011;38223;50.940;4.034;2022-11-20T12:30:48;5.72;;;3.42;;
52266;SDS011;38223;50.940;4.034;2022-11-20T12:36:19;8.60;;;4.28;;
52266;SDS011;38223;50.940;4.034;2022-11-20T12:39:22;16.32;;;3.92;;
52266;SDS011;38223;50.940;4.034;2022-11-20T12:42:05;7.95;;;4.25;;
52266;SDS011;38223;50.940;4.034;2022-11-20T12:48:07;5.20;;;4.70;;
52266;SDS011;38223;50.940;4.034;2022-11-20T12:59:12;11.00;;;4.60;;
52266;SDS011;38223;50.940;4.034;2022-11-20T13:01:50;7.33;;;5.35;;
52266;SDS011;38223;50.940;4.034;2022-11-20T13:07:29;5.78;;;4.87;;
52266;SDS011;38223;50.940;4.034;2022-11-20T13:10:04;7.00;;;4.78;;
52266;SDS011;38223;50.940;4.034;2022-11-20T13:12:38;15.10;;;5.40;;
52266;SDS011;38223;50.940;4.034;2022-11-20T13:18:01;6.92;;;4.17;;
52266;SDS011;38223;50.940;4.034;2022-11-20T13:20:33;5.60;;;4.15;;
52266;SDS011;38223;50.940;4.034;2022-11-20T13:23:07;4.90;;;3.42;;
52266;SDS011;38223;50.940;4.034;2022-11-20T13:25:40;6.00;;;3.70;;
52266;SDS011;38223;50.940;4.034;2022-11-20T13:30:51;5.05;;;3.75;;
52266;SDS011;38223;50.940;4.034;2022-11-20T13:33:27;6.60;;;3.58;;
52266;SDS011;38223;50.940;4.034;2022-11-20T13:36:20;5.62;;;4.03;;
52266;SDS011;38223;50.940;4.034;2022-11-20T13:38:54;4.15;;;2.85;;
52266;SDS011;38223;50.940;4.034;2022-11-20T13:46:57;4.17;;;3.65;;
52266;SDS011;38223;50.940;4.034;2022-11-20T13:52:15;3.40;;;2.05;;
52266;SDS011;38223;50.940;4.034;2022-11-20T13:54:52;4.05;;;2.90;;
52266;SDS011;38223;50.940;4.034;2022-11-20T13:57:26;2.60;;;2.40;;
52266;SDS011;38223;50.940;4.034;2022-11-20T14:00:16;3.17;;;2.50;;
52266;SDS011;38223;50.940;4.034;2022-11-20T14:05:38;2.65;;;2.17;;
52266;SDS011;38223;50.940;4.034;2022-11-20T14:08:12;2.50;;;2.30;;
52266;SDS011;38223;50.940;4.034;2022-11-20T14:10:42;4.17;;;2.70;;
52266;SDS011;38223;50.940;4.034;2022-11-20T14:13:21;3.33;;;3.02;;
52266;SDS011;38223;50.940;4.034;2022-11-20T14:15:56;3.52;;;3.22;;
52266;SDS011;38223;50.940;4.034;2022-11-20T14:18:31;4.10;;;3.42;;
52266;SDS011;38223;50.940;4.034;2022-11-20T14:21:03;2.67;;;2.47;;
52266;SDS011;38223;50.940;4.034;2022-11-20T14:23:33;4.08;;;3.58;;
52266;SDS011;38223;50.940;4.034;2022-11-20T14:26:06;3.95;;;3.30;;
52266;SDS011;38223;50.940;4.034;2022-11-20T14:28:43;3.30;;;3.00;;
52266;SDS011;38223;50.940;4.034;2022-11-20T14:31:21;8.63;;;5.53;;
52266;SDS011;38223;50.940;4.034;2022-11-20T14:33:51;4.28;;;3.85;;
52266;SDS011;38223;50.940;4.034;2022-11-20T14:36:25;3.50;;;3.20;;
52266;SDS011;38223;50.940;4.034;2022-11-20T14:39:21;6.35;;;3.12;;
52266;SDS011;38223;50.940;4.034;2022-11-20T14:42:00;5.35;;;4.10;;
52266;SDS011;38223;50.940;4.034;2022-11-20T14:44:31;4.22;;;3.80;;
52266;SDS011;38223;50.940;4.034;2022-11-20T14:47:06;3.30;;;3.00;;
52266;SDS011;38223;50.940;4.034;2022-11-20T14:49:36;3.52;;;3.22;;
52266;SDS011;38223;50.940;4.034;2022-11-20T14:52:31;3.50;;;3.20;;
52266;SDS011;38223;50.940;4.034;2022-11-20T14:54:54;3.35;;;3.05;;
52266;SDS011;38223;50.940;4.034;2022-11-20T15:02:45;4.45;;;4.05;;
52266;SDS011;38223;50.940;4.034;2022-11-20T15:05:20;3.55;;;3.22;;
52266;SDS011;38223;50.940;4.034;2022-11-20T15:08:03;8.15;;;4.50;;
52266;SDS011;38223;50.940;4.034;2022-11-20T15:10:36;4.60;;;3.58;;
52266;SDS011;38223;50.940;4.034;2022-11-20T15:13:12;8.38;;;3.50;;
52266;SDS011;38223;50.940;4.034;2022-11-20T15:15:47;5.92;;;3.50;;
52266;SDS011;38223;50.940;4.034;2022-11-20T15:18:36;8.45;;;4.17;;
52266;SDS011;38223;50.940;4.034;2022-11-20T15:21:13;8.43;;;3.50;;
52266;SDS011;38223;50.940;4.034;2022-11-20T15:23:47;6.17;;;3.50;;
52266;SDS011;38223;50.940;4.034;2022-11-20T15:26:21;7.50;;;3.90;;
52266;SDS011;38223;50.940;4.034;2022-11-20T15:28:55;6.83;;;3.47;;
52266;SDS011;38223;50.940;4.034;2022-11-20T15:31:25;10.82;;;3.20;;
52266;SDS011;38223;50.940;4.034;2022-11-20T15:34:00;5.50;;;2.62;;
52266;SDS011;38223;50.940;4.034;2022-11-20T15:36:30;11.20;;;3.05;;
52266;SDS011;38223;50.940;4.034;2022-11-20T15:39:05;8.98;;;2.75;;
52266;SDS011;38223;50.940;4.034;2022-11-20T15:41:35;9.45;;;2.77;;
52266;SDS011;38223;50.940;4.034;2022-11-20T15:44:10;15.18;;;4.05;;
52266;SDS011;38223;50.940;4.034;2022-11-20T15:46:38;11.12;;;2.83;;
52266;SDS011;38223;50.940;4.034;2022-11-20T15:49:13;11.68;;;3.22;;
52266;SDS011;38223;50.940;4.034;2022-11-20T15:51:47;10.70;;;2.70;;
52266;SDS011;38223;50.940;4.034;2022-11-20T15:54:20;14.38;;;2.60;;
52266;SDS011;38223;50.940;4.034;2022-11-20T15:56:50;10.58;;;2.90;;
52266;SDS011;38223;50.940;4.034;2022-11-20T15:59:26;16.45;;;3.52;;
52266;SDS011;38223;50.940;4.034;2022-11-20T16:01:59;11.68;;;3.00;;
52266;SDS011;38223;50.940;4.034;2022-11-20T16:04:33;13.75;;;2.92;;
52266;SDS011;38223;50.940;4.034;2022-11-20T16:07:02;17.17;;;3.98;;
52266;SDS011;38223;50.940;4.034;2022-11-20T16:09:34;14.30;;;3.42;;
52266;SDS011;38223;50.940;4.034;2022-11-20T16:12:12;12.65;;;2.95;;
52266;SDS011;38223;50.940;4.034;2022-11-20T16:14:44;10.90;;;3.50;;
52266;SDS011;38223;50.940;4.034;2022-11-20T16:17:22;10.43;;;3.08;;
52266;SDS011;38223;50.940;4.034;2022-11-20T16:19:52;19.48;;;2.72;;
52266;SDS011;38223;50.940;4.034;2022-11-20T16:22:27;13.53;;;3.80;;
52266;SDS011;38223;50.940;4.034;2022-11-20T16:24:57;15.03;;;3.40;;
52266;SDS011;38223;50.940;4.034;2022-11-20T16:27:25;18.52;;;3.85;;
52266;SDS011;38223;50.940;4.034;2022-11-20T16:30:00;13.88;;;3.47;;
52266;SDS011;38223;50.940;4.034;2022-11-20T16:32:28;20.35;;;4.22;;
52266;SDS011;38223;50.940;4.034;2022-11-20T16:35:04;20.05;;;3.98;;
52266;SDS011;38223;50.940;4.034;2022-11-20T16:37:33;9.50;;;2.65;;
52266;SDS011;38223;50.940;4.034;2022-11-20T16:40:00;8.45;;;2.95;;
52266;SDS011;38223;50.940;4.034;2022-11-20T16:42:31;15.40;;;2.85;;
52266;SDS011;38223;50.940;4.034;2022-11-20T16:45:05;12.75;;;3.25;;
52266;SDS011;38223;50.940;4.034;2022-11-20T16:47:36;17.05;;;3.42;;